createdAt,value
2019-01-27T00:02:20.614Z,81.60
2019-01-27T00:04:50.157Z,81.71
2019-01-27T00:07:19.682Z,81.71
2019-01-27T00:09:49.512Z,81.53
2019-01-27T00:12:19.009Z,81.53
2019-01-27T00:14:48.615Z,81.63
2019-01-27T00:17:18.351Z,81.85
2019-01-27T00:19:47.921Z,82.15
2019-01-27T00:22:18.445Z,82.10
2019-01-27T00:24:47.940Z,82.01
2019-01-27T00:27:17.469Z,81.92
2019-01-27T00:29:47.027Z,82.25
2019-01-27T00:32:16.814Z,82.29
2019-01-27T00:34:46.339Z,82.03
2019-01-27T00:37:15.882Z,82.00
2019-01-27T00:39:45.404Z,81.71
2019-01-27T00:42:14.924Z,81.69
2019-01-27T00:44:44.459Z,81.46
2019-01-27T00:47:14.033Z,81.43
2019-01-27T00:49:43.551Z,81.41
2019-01-27T00:52:13.144Z,81.38
2019-01-27T00:54:42.645Z,81.36
2019-01-27T00:57:12.260Z,81.26
2019-01-27T00:59:41.800Z,81.02
2019-01-27T01:02:11.667Z,80.89
2019-01-27T01:04:41.219Z,80.81
2019-01-27T01:07:10.765Z,80.52
2019-01-27T01:09:40.332Z,80.41
2019-01-27T01:12:10.016Z,80.62
2019-01-27T01:14:39.538Z,80.58
2019-01-27T01:17:09.159Z,80.89
2019-01-27T01:19:38.720Z,81.11
2019-01-27T01:22:08.411Z,81.49
2019-01-27T01:24:37.962Z,81.66
2019-01-27T01:27:07.655Z,81.56
2019-01-27T01:29:37.476Z,81.83
2019-01-27T01:32:07.174Z,82.06
2019-01-27T01:34:36.748Z,82.24
2019-01-27T01:37:06.548Z,82.22
2019-01-27T01:39:37.981Z,82.47
2019-01-27T01:42:09.248Z,82.77
2019-01-27T01:44:38.802Z,82.94
2019-01-27T01:47:08.405Z,82.92
2019-01-27T01:49:38.293Z,83.06
2019-01-27T01:52:08.289Z,83.32
2019-01-27T01:54:37.806Z,83.50
2019-01-27T01:57:07.381Z,83.48
2019-01-27T01:59:38.471Z,83.69
2019-01-27T02:02:08.074Z,83.80
2019-01-27T02:04:37.651Z,84.23
2019-01-27T02:07:07.291Z,84.21
2019-01-27T02:09:41.630Z,84.35
2019-01-27T02:12:11.243Z,84.33
2019-01-27T02:14:40.880Z,84.18
2019-01-27T02:17:10.447Z,84.42
2019-01-27T02:19:39.972Z,84.41
2019-01-27T02:22:09.648Z,84.61
2019-01-27T02:24:39.210Z,84.63
2019-01-27T02:27:08.747Z,84.53
2019-01-27T02:29:38.284Z,84.63
2019-01-27T02:32:07.845Z,84.82
2019-01-27T02:34:37.464Z,84.82
2019-01-27T02:37:07.215Z,84.83
2019-01-27T02:39:39.682Z,84.88
2019-01-27T02:42:09.361Z,84.99
2019-01-27T02:44:39.047Z,85.01
2019-01-27T02:47:08.691Z,85.11
2019-01-27T02:49:38.322Z,85.41
2019-01-27T02:52:08.029Z,85.53
2019-01-27T02:54:37.697Z,85.51
2019-01-27T02:57:07.297Z,85.71
2019-01-27T02:59:36.864Z,85.67
2019-01-27T03:02:10.356Z,85.78
2019-01-27T03:04:39.511Z,85.78
2019-01-27T03:07:12.554Z,85.93
2019-01-27T03:09:43.747Z,86.18
2019-01-27T03:12:14.843Z,85.92
2019-01-27T03:14:44.416Z,85.90
2019-01-27T03:17:15.899Z,85.81
2019-01-27T03:19:45.458Z,85.86
2019-01-27T03:22:15.078Z,85.82
2019-01-27T03:24:44.670Z,85.77
2019-01-27T03:27:14.334Z,85.67
2019-01-27T03:29:43.976Z,85.50
2019-01-27T03:32:15.544Z,85.43
2019-01-27T03:34:45.074Z,85.24
2019-01-27T03:37:14.784Z,85.22
2019-01-27T03:39:44.680Z,85.07
2019-01-27T03:42:14.376Z,85.02
2019-01-27T03:44:43.923Z,85.14
2019-01-27T03:47:13.523Z,85.17
2019-01-27T03:49:43.106Z,84.90
2019-01-27T03:52:12.810Z,84.81
2019-01-27T03:54:42.384Z,84.67
2019-01-27T03:57:11.987Z,84.64
2019-01-27T03:59:41.578Z,84.74
2019-01-27T04:02:11.165Z,84.82
2019-01-27T04:04:40.712Z,84.81
2019-01-27T04:07:10.361Z,84.95
2019-01-27T04:09:39.889Z,85.00
2019-01-27T04:12:09.491Z,84.87
2019-01-27T04:14:39.056Z,84.83
2019-01-27T04:17:08.598Z,84.82
2019-01-27T04:19:38.148Z,84.97
2019-01-27T04:22:07.897Z,84.96
2019-01-27T04:24:37.413Z,84.91
2019-01-27T04:27:06.955Z,84.80
2019-01-27T04:29:36.538Z,84.60
2019-01-27T04:32:06.066Z,84.28
2019-01-27T04:34:35.594Z,84.17
2019-01-27T04:37:05.209Z,84.09
2019-01-27T04:39:34.737Z,84.05
2019-01-27T04:42:04.358Z,83.96
2019-01-27T04:44:33.915Z,83.90
2019-01-27T04:47:03.469Z,83.91
2019-01-27T04:49:33.279Z,83.61
2019-01-27T04:52:02.828Z,83.37
2019-01-27T04:54:32.386Z,83.17
2019-01-27T04:57:01.921Z,82.91
2019-01-27T04:59:31.467Z,82.80
2019-01-27T05:02:01.000Z,82.54
2019-01-27T05:04:31.518Z,82.35
2019-01-27T05:07:01.047Z,82.17
2019-01-27T05:09:30.607Z,82.19
2019-01-27T05:12:00.423Z,82.01
2019-01-27T05:14:30.895Z,82.00
2019-01-27T05:17:00.688Z,82.00
2019-01-27T05:19:30.238Z,81.83
2019-01-27T05:21:59.789Z,81.86
2019-01-27T05:24:29.340Z,81.89
2019-01-27T05:26:59.841Z,81.93
2019-01-27T05:29:29.392Z,81.93
2019-01-27T05:31:58.936Z,81.96
2019-01-27T05:34:28.787Z,82.02
2019-01-27T05:36:58.391Z,82.21
2019-01-27T05:39:27.943Z,82.21
2019-01-27T05:41:57.486Z,82.40
2019-01-27T05:44:27.035Z,82.40
2019-01-27T05:46:56.587Z,82.63
2019-01-27T05:49:26.120Z,82.97
2019-01-27T05:51:55.702Z,83.32
2019-01-27T05:54:25.212Z,83.37
2019-01-27T05:56:56.593Z,83.28
2019-01-27T05:59:26.395Z,83.20
2019-01-27T06:01:55.930Z,83.49
2019-01-27T06:04:25.751Z,83.47
2019-01-27T06:06:55.281Z,83.41
2019-01-27T06:09:24.809Z,83.60
2019-01-27T06:11:54.375Z,83.54
2019-01-27T06:14:23.923Z,83.64
2019-01-27T06:16:53.495Z,83.57
2019-01-27T06:19:23.018Z,83.29
2019-01-27T06:21:52.584Z,83.12
2019-01-27T06:24:22.124Z,83.02
2019-01-27T06:26:51.649Z,82.78
2019-01-27T06:29:21.195Z,82.73
2019-01-27T06:31:50.798Z,82.63
2019-01-27T06:34:20.394Z,82.60
2019-01-27T06:36:49.871Z,82.35
2019-01-27T06:39:19.491Z,82.40
2019-01-27T06:41:49.057Z,82.36
2019-01-27T06:44:18.585Z,82.24
2019-01-27T06:46:48.145Z,82.33
2019-01-27T06:49:17.748Z,82.34
2019-01-27T06:51:47.313Z,82.20
2019-01-27T06:54:16.967Z,82.30
2019-01-27T06:56:46.519Z,82.23
2019-01-27T06:59:23.471Z,82.41
2019-01-27T07:01:54.661Z,82.29
2019-01-27T07:04:28.324Z,82.16
2019-01-27T07:07:08.372Z,82.57
2019-01-27T07:09:42.622Z,82.95
2019-01-27T07:12:29.835Z,83.09
2019-01-27T07:14:59.170Z,82.99
2019-01-27T07:17:42.082Z,82.98
2019-01-27T07:20:29.930Z,83.12
2019-01-27T07:23:07.026Z,83.08
2019-01-27T07:25:43.876Z,83.00
2019-01-27T07:28:20.546Z,82.96
2019-01-27T07:31:07.585Z,82.83
2019-01-27T07:33:39.598Z,82.67
2019-01-27T07:36:26.545Z,82.35
2019-01-27T07:39:06.596Z,82.15
2019-01-27T07:41:37.847Z,82.33
2019-01-27T07:44:09.040Z,82.40
2019-01-27T07:46:40.216Z,82.55
2019-01-27T07:49:12.387Z,82.90
2019-01-27T07:51:52.151Z,83.07
2019-01-27T07:54:39.066Z,82.98
2019-01-27T07:57:10.284Z,82.91
2019-01-27T07:59:44.144Z,82.68
2019-01-27T08:02:15.324Z,82.52
2019-01-27T08:05:04.619Z,82.31
2019-01-27T08:07:41.469Z,82.23
2019-01-27T08:10:16.240Z,82.17
2019-01-27T08:13:05.227Z,82.23
2019-01-27T08:15:52.264Z,82.26
2019-01-27T08:18:23.434Z,82.10
2019-01-27T08:20:52.756Z,81.96
2019-01-27T08:23:32.672Z,81.77
2019-01-27T08:26:06.517Z,81.59
2019-01-27T08:28:43.359Z,81.51
2019-01-27T08:31:16.978Z,81.42
2019-01-27T08:33:48.173Z,81.45
2019-01-27T08:36:30.932Z,81.48
2019-01-27T08:39:07.758Z,81.42
2019-01-27T08:41:55.087Z,81.34
2019-01-27T08:44:28.933Z,81.31
2019-01-27T08:46:58.475Z,81.21
2019-01-27T08:49:28.045Z,81.13
2019-01-27T08:51:57.587Z,81.19
2019-01-27T08:54:27.460Z,81.09
2019-01-27T08:56:56.979Z,81.04
2019-01-27T08:59:26.553Z,81.08
2019-01-27T09:02:13.668Z,80.99
2019-01-27T09:04:44.940Z,80.88
2019-01-27T09:07:32.107Z,80.86
2019-01-27T09:10:08.974Z,80.75
2019-01-27T09:12:42.849Z,80.68
2019-01-27T09:15:17.032Z,80.64
2019-01-27T09:17:53.898Z,80.72
2019-01-27T09:20:23.215Z,80.69
2019-01-27T09:23:06.557Z,81.10
2019-01-27T09:25:43.684Z,81.14
2019-01-27T09:28:23.585Z,81.13
2019-01-27T09:31:06.649Z,81.14
2019-01-27T09:33:36.043Z,81.08
2019-01-27T09:36:16.362Z,80.81
2019-01-27T09:38:50.217Z,80.63
2019-01-27T09:41:33.008Z,80.43
2019-01-27T09:44:06.951Z,80.30
2019-01-27T09:46:54.362Z,80.18
2019-01-27T09:49:35.465Z,80.18
2019-01-27T09:52:15.839Z,79.88
2019-01-27T09:54:58.962Z,79.75
2019-01-27T09:57:35.939Z,79.83
2019-01-27T10:00:14.781Z,79.64
2019-01-27T10:02:46.107Z,79.67
2019-01-27T10:05:20.412Z,79.55
2019-01-27T10:07:51.648Z,79.50
2019-01-27T10:10:28.617Z,79.40
2019-01-27T10:13:02.511Z,79.52
2019-01-27T10:15:39.718Z,79.54
2019-01-27T10:18:10.937Z,79.48
2019-01-27T10:20:42.450Z,79.43
2019-01-27T10:23:19.075Z,79.29
2019-01-27T10:25:50.248Z,79.34
2019-01-27T10:28:30.363Z,79.38
2019-01-27T10:31:04.199Z,79.48
2019-01-27T10:33:36.203Z,79.69
2019-01-27T10:36:17.471Z,79.70
2019-01-27T10:38:51.153Z,79.79
2019-01-27T10:41:24.741Z,79.83
2019-01-27T10:43:58.726Z,79.98
2019-01-27T10:46:29.912Z,79.85
2019-01-27T10:49:01.109Z,79.91
2019-01-27T10:51:32.285Z,80.15
2019-01-27T10:54:09.030Z,80.31
2019-01-27T10:56:42.649Z,80.35
2019-01-27T10:59:22.762Z,80.84
2019-01-27T11:01:56.972Z,81.06
2019-01-27T11:04:30.638Z,81.42
2019-01-27T11:07:17.670Z,81.54
2019-01-27T11:10:04.872Z,81.52
2019-01-27T11:12:54.028Z,81.49
2019-01-27T11:15:25.214Z,81.35
2019-01-27T11:18:05.043Z,81.36
2019-01-27T11:20:40.034Z,81.35
2019-01-27T11:23:14.853Z,81.50
2019-01-27T11:25:46.128Z,81.45
2019-01-27T11:28:17.323Z,81.35
2019-01-27T11:30:48.506Z,81.48
2019-01-27T11:33:22.836Z,81.61
2019-01-27T11:36:02.799Z,81.72
2019-01-27T11:38:34.312Z,81.63
2019-01-27T11:41:12.500Z,81.59
2019-01-27T11:43:58.566Z,81.85
2019-01-27T11:46:27.903Z,81.86
2019-01-27T11:49:10.882Z,81.89
2019-01-27T11:51:41.024Z,82.04
2019-01-27T11:54:10.583Z,82.05
2019-01-27T11:56:40.208Z,82.20
2019-01-27T11:59:09.962Z,82.45
2019-01-27T12:01:39.485Z,82.79
2019-01-27T12:04:09.054Z,82.76
2019-01-27T12:06:38.746Z,83.21
2019-01-27T12:09:08.626Z,83.24
2019-01-27T12:11:38.158Z,83.24
2019-01-27T12:14:07.860Z,83.08
2019-01-27T12:16:37.447Z,83.36
2019-01-27T12:19:07.149Z,83.28
2019-01-27T12:21:36.768Z,83.27
2019-01-27T12:24:06.370Z,83.28
2019-01-27T12:26:36.526Z,83.44
2019-01-27T12:29:06.184Z,83.46
2019-01-27T12:31:35.821Z,83.58
2019-01-27T12:34:05.524Z,83.50
2019-01-27T12:37:02.494Z,83.57
2019-01-27T12:39:29.370Z,83.61
2019-01-27T12:42:45.892Z,83.67
2019-01-27T12:45:17.695Z,83.75
2019-01-27T12:47:47.380Z,84.16
2019-01-27T12:50:20.834Z,84.07
2019-01-27T12:52:53.684Z,84.27
2019-01-27T12:55:23.463Z,84.24
2019-01-27T12:57:53.115Z,84.21
2019-01-27T13:00:39.053Z,84.16
2019-01-27T13:03:11.227Z,83.99
2019-01-27T13:05:40.831Z,84.04
2019-01-27T13:08:10.434Z,83.98
2019-01-27T13:10:40.119Z,84.02
2019-01-27T13:13:12.022Z,83.82
2019-01-27T13:15:41.175Z,83.69
2019-01-27T13:21:35.211Z,83.16
2019-01-27T13:24:07.555Z,82.89
2019-01-27T13:26:37.221Z,82.93
2019-01-27T13:29:06.790Z,83.17
2019-01-27T13:31:55.974Z,83.33
2019-01-27T13:34:15.259Z,83.38
2019-01-27T13:37:05.381Z,83.63
2019-01-27T13:39:54.871Z,83.58
2019-01-27T13:46:10.179Z,83.82
2019-01-27T13:48:39.697Z,84.00
2019-01-27T13:51:09.216Z,84.19
2019-01-27T13:53:39.347Z,84.33
2019-01-27T13:56:09.251Z,84.79
2019-01-27T13:58:38.790Z,84.81
2019-01-27T14:01:08.354Z,84.83
2019-01-27T14:03:38.453Z,85.24
2019-01-27T14:06:08.004Z,85.33
2019-01-27T14:08:37.533Z,85.34
2019-01-27T14:11:07.087Z,85.30
2019-01-27T14:13:36.620Z,85.33
2019-01-27T14:16:06.355Z,85.54
2019-01-27T14:18:35.899Z,85.49
2019-01-27T14:21:05.688Z,85.23
2019-01-27T14:23:35.223Z,85.25
2019-01-27T14:26:06.193Z,85.17
2019-01-27T14:28:38.817Z,85.01
2019-01-27T14:31:14.803Z,84.86
2019-01-27T14:33:44.074Z,84.81
2019-01-27T14:36:13.582Z,84.75
2019-01-27T14:38:45.195Z,84.73
2019-01-27T14:41:14.726Z,85.00
2019-01-27T14:43:51.750Z,84.90
2019-01-27T14:46:24.062Z,84.86
2019-01-27T14:48:53.643Z,84.79
2019-01-27T14:51:26.039Z,84.76
2019-01-27T14:53:55.612Z,84.65
2019-01-27T14:56:25.163Z,85.00
2019-01-27T14:58:56.200Z,85.11
2019-01-27T15:01:25.749Z,84.99
2019-01-27T15:03:55.302Z,84.93
2019-01-27T15:06:24.844Z,84.85
2019-01-27T15:08:55.704Z,84.85
2019-01-27T15:11:25.479Z,84.72
2019-01-27T15:13:58.048Z,84.52
2019-01-27T15:16:27.602Z,84.45
2019-01-27T15:18:57.187Z,84.30
2019-01-27T15:21:26.717Z,84.26
2019-01-27T15:23:57.064Z,84.32
2019-01-27T15:26:27.222Z,84.19
2019-01-27T15:28:59.367Z,84.20
2019-01-27T15:31:28.929Z,84.25
2019-01-27T15:33:59.052Z,84.31
2019-01-27T15:36:29.205Z,84.22
2019-01-27T15:38:59.614Z,84.58
2019-01-27T15:41:29.618Z,84.50
2019-01-27T15:44:01.115Z,84.51
2019-01-27T15:46:31.332Z,84.55
2019-01-27T15:49:01.047Z,84.74
2019-01-27T15:51:31.481Z,85.02
2019-01-27T15:54:01.630Z,85.33
2019-01-27T15:56:31.259Z,86.04
2019-01-27T15:59:00.974Z,85.83
2019-01-27T16:01:30.637Z,85.67
2019-01-27T16:04:00.181Z,85.49
2019-01-27T16:06:30.048Z,84.98
2019-01-27T16:09:01.268Z,84.71
2019-01-27T16:11:31.033Z,84.29
2019-01-27T16:14:00.770Z,84.26
2019-01-27T16:16:32.768Z,84.27
2019-01-27T16:19:02.338Z,84.39
2019-01-27T16:21:31.903Z,84.14
2019-01-27T16:24:02.354Z,84.51
2019-01-27T16:26:31.868Z,84.50
2019-01-27T16:29:02.607Z,84.43
2019-01-27T16:31:36.753Z,84.40
2019-01-27T16:34:08.185Z,84.24
2019-01-27T16:36:38.504Z,84.59
2019-01-27T16:39:12.544Z,84.76
2019-01-27T16:41:42.182Z,84.79
2019-01-27T16:44:12.005Z,84.87
2019-01-27T16:46:41.699Z,84.72
2019-01-27T16:49:11.440Z,84.58
2019-01-27T16:51:48.729Z,84.50
2019-01-27T16:54:14.868Z,84.01
2019-01-27T16:56:44.454Z,84.23
2019-01-27T16:59:14.075Z,84.43
2019-01-27T17:01:43.703Z,84.27
2019-01-27T17:04:13.267Z,84.39
2019-01-27T17:06:42.898Z,84.84
2019-01-27T17:09:12.825Z,84.88
2019-01-27T17:11:42.431Z,84.85
2019-01-27T17:14:12.096Z,84.92
2019-01-27T17:16:41.759Z,84.75
2019-01-27T17:19:11.500Z,84.74
2019-01-27T17:21:41.224Z,84.80
2019-01-27T17:24:11.055Z,84.93
2019-01-27T17:26:40.847Z,84.87
2019-01-27T17:29:10.506Z,84.89
2019-01-27T17:31:44.743Z,84.80
2019-01-27T17:34:11.413Z,84.93
2019-01-27T17:36:44.173Z,84.79
2019-01-27T17:39:13.852Z,84.96
2019-01-27T17:41:43.573Z,84.79
2019-01-27T17:44:13.529Z,84.61
2019-01-27T17:46:43.265Z,84.81
2019-01-27T17:49:12.897Z,84.86
2019-01-27T17:51:42.645Z,84.95
2019-01-27T17:54:12.352Z,85.01
2019-01-27T17:56:43.818Z,84.96
2019-01-27T17:59:15.212Z,84.65
2019-01-27T18:01:49.512Z,84.45
2019-01-27T18:04:29.431Z,84.42
2019-01-27T18:07:00.835Z,84.32
2019-01-27T18:09:50.149Z,84.22
2019-01-27T18:12:21.429Z,84.08
2019-01-27T18:14:51.227Z,84.08
2019-01-27T18:17:21.956Z,83.98
2019-01-27T18:19:51.517Z,83.90
2019-01-27T18:22:21.222Z,83.95
2019-01-27T18:24:50.795Z,83.93
2019-01-27T18:27:20.341Z,83.80
2019-01-27T18:29:49.943Z,83.82
2019-01-27T18:32:19.604Z,83.97
2019-01-27T18:34:49.352Z,84.15
2019-01-27T18:37:19.627Z,84.29
2019-01-27T18:39:49.771Z,84.13
2019-01-27T18:42:19.352Z,84.33
2019-01-27T18:44:50.009Z,84.44
2019-01-27T18:47:19.600Z,84.67
2019-01-27T18:49:51.102Z,85.15
2019-01-27T18:52:20.630Z,84.88
2019-01-27T18:54:51.954Z,84.39
2019-01-27T18:57:23.094Z,83.96
2019-01-27T18:59:54.384Z,84.29
2019-01-27T19:02:34.342Z,84.87
2019-01-27T19:05:09.860Z,85.26
2019-01-27T19:07:43.442Z,85.19
2019-01-27T19:10:14.965Z,85.03
2019-01-27T19:12:46.692Z,85.02
2019-01-27T19:15:20.733Z,84.91
2019-01-27T19:17:54.752Z,84.89
2019-01-27T19:20:26.345Z,85.07
2019-01-27T19:23:13.690Z,85.04
2019-01-27T19:25:47.366Z,84.74
2019-01-27T19:28:24.403Z,84.45
2019-01-27T19:30:55.635Z,84.67
2019-01-27T19:33:29.661Z,84.80
2019-01-27T19:36:19.065Z,84.53
2019-01-27T19:38:59.044Z,84.51
2019-01-27T19:41:47.157Z,84.34
2019-01-27T19:44:25.552Z,84.23
2019-01-27T19:46:56.738Z,84.43
2019-01-27T19:49:44.345Z,84.23
2019-01-27T19:52:33.735Z,84.02
2019-01-27T19:55:07.581Z,83.95
2019-01-27T19:57:38.870Z,84.17
2019-01-27T20:00:15.934Z,84.12
2019-01-27T20:02:50.083Z,83.96
2019-01-27T20:05:25.215Z,84.02
2019-01-27T20:08:14.446Z,84.01
2019-01-27T20:10:45.667Z,84.04
2019-01-27T20:13:35.755Z,83.96
2019-01-27T20:16:08.318Z,83.67
2019-01-27T20:18:56.209Z,83.43
2019-01-27T20:21:27.944Z,83.30
2019-01-27T20:24:11.438Z,83.41
2019-01-27T20:26:42.875Z,83.15
2019-01-27T20:29:24.401Z,83.06
2019-01-27T20:31:56.327Z,83.01
2019-01-27T20:34:27.755Z,82.90
2019-01-27T20:37:07.939Z,82.80
2019-01-27T20:39:52.141Z,82.69
2019-01-27T20:42:39.466Z,82.43
2019-01-27T20:45:20.575Z,82.51
2019-01-27T20:47:54.859Z,82.52
2019-01-27T20:50:41.020Z,82.58
2019-01-27T20:53:15.008Z,82.58
2019-01-27T20:55:46.702Z,82.37
2019-01-27T20:58:21.397Z,82.38
2019-01-27T21:00:52.851Z,82.30
2019-01-27T21:03:24.239Z,82.26
2019-01-27T21:06:05.139Z,81.79
2019-01-27T21:08:36.511Z,81.71
2019-01-27T21:11:17.691Z,81.65
2019-01-27T21:13:55.322Z,81.68
2019-01-27T21:16:37.148Z,81.77
2019-01-27T21:19:09.626Z,81.68
2019-01-27T21:21:39.941Z,81.46
2019-01-27T21:24:10.828Z,81.39
2019-01-27T21:26:40.460Z,81.39
2019-01-27T21:29:10.854Z,81.27
2019-01-27T21:31:41.626Z,81.35
2019-01-27T21:34:11.203Z,81.49
2019-01-27T21:36:41.043Z,81.43
2019-01-27T21:42:04.403Z,81.24
2019-01-27T21:44:35.105Z,81.25
2019-01-27T21:47:04.973Z,81.25
2019-01-27T21:49:34.471Z,81.17
2019-01-27T21:52:04.056Z,81.16
2019-01-27T21:54:33.664Z,80.94
2019-01-27T21:57:03.177Z,80.70
2019-01-27T21:59:32.732Z,80.65
2019-01-27T22:02:02.269Z,80.61
2019-01-27T22:04:31.812Z,80.47
2019-01-27T22:07:02.378Z,80.55
2019-01-27T22:09:31.970Z,80.35
2019-01-27T22:12:01.526Z,80.17
2019-01-27T22:14:31.063Z,80.30
2019-01-27T22:17:00.585Z,80.22
2019-01-27T22:19:30.105Z,80.41
2019-01-27T22:21:59.908Z,80.39
2019-01-27T22:24:29.420Z,80.48
2019-01-27T22:26:58.966Z,80.41
2019-01-27T22:29:28.484Z,80.38
2019-01-27T22:31:58.025Z,80.45
2019-01-27T22:34:27.546Z,80.51
2019-01-27T22:36:57.827Z,80.45
2019-01-27T22:39:29.210Z,80.58
2019-01-27T22:41:58.741Z,80.78
2019-01-27T22:44:28.285Z,81.32
2019-01-27T22:46:57.812Z,81.25
2019-01-27T22:49:27.379Z,81.57
2019-01-27T22:51:58.545Z,81.77
2019-01-27T22:54:28.068Z,81.81
2019-01-27T22:56:58.714Z,82.02
2019-01-27T22:59:28.257Z,82.10
2019-01-27T23:01:57.800Z,82.02
2019-01-27T23:04:27.344Z,81.92
2019-01-27T23:06:56.863Z,81.94
2019-01-27T23:09:26.465Z,81.80
2019-01-27T23:11:55.993Z,81.77
2019-01-27T23:14:25.525Z,81.62
2019-01-27T23:16:55.059Z,81.70
2019-01-27T23:19:24.609Z,81.60
2019-01-27T23:21:54.146Z,81.36
2019-01-27T23:24:23.677Z,81.38
2019-01-27T23:26:53.218Z,81.44
2019-01-27T23:29:22.752Z,81.35
2019-01-27T23:31:52.315Z,81.41
2019-01-27T23:34:21.829Z,81.40
2019-01-27T23:36:51.645Z,81.37
2019-01-27T23:39:21.190Z,81.22
2019-01-27T23:41:50.729Z,81.31
2019-01-27T23:44:20.249Z,81.37
2019-01-27T23:46:49.787Z,81.33
2019-01-27T23:49:19.547Z,81.09
2019-01-27T23:51:49.079Z,80.98
2019-01-27T23:54:18.862Z,81.09
2019-01-27T23:56:48.409Z,81.11
2019-01-27T23:59:17.911Z,81.13
